sensor_id;sensor_type;location;lat;lon;timestamp;temperature;humidity
20457;DHT22;10387;51.102;6.848;2023-01-25T00:01:43;2.00;99.90
20457;DHT22;10387;51.102;6.848;2023-01-25T00:04:09;2.00;99.90
20457;DHT22;10387;51.102;6.848;2023-01-25T00:06:34;2.10;99.90
20457;DHT22;10387;51.102;6.848;2023-01-25T00:09:00;2.00;99.90
20457;DHT22;10387;51.102;6.848;2023-01-25T00:11:26;2.00;99.90
20457;DHT22;10387;51.102;6.848;2023-01-25T00:13:53;2.10;99.90
20457;DHT22;10387;51.102;6.848;2023-01-25T00:16:18;2.10;99.90
20457;DHT22;10387;51.102;6.848;2023-01-25T00:18:44;2.10;99.90
20457;DHT22;10387;51.102;6.848;2023-01-25T00:21:18;2.20;99.90
20457;DHT22;10387;51.102;6.848;2023-01-25T00:23:44;2.20;99.90
20457;DHT22;10387;51.102;6.848;2023-01-25T00:26:10;2.20;99.90
20457;DHT22;10387;51.102;6.848;2023-01-25T00:28:36;2.20;99.90
20457;DHT22;10387;51.102;6.848;2023-01-25T00:31:03;2.10;99.90
20457;DHT22;10387;51.102;6.848;2023-01-25T00:33:51;2.10;99.90
20457;DHT22;10387;51.102;6.848;2023-01-25T00:38:53;2.00;99.90
20457;DHT22;10387;51.102;6.848;2023-01-25T00:41:19;2.10;99.90
20457;DHT22;10387;51.102;6.848;2023-01-25T00:43:45;2.20;99.90
20457;DHT22;10387;51.102;6.848;2023-01-25T00:46:14;2.20;99.90
20457;DHT22;10387;51.102;6.848;2023-01-25T00:48:40;2.20;99.90
20457;DHT22;10387;51.102;6.848;2023-01-25T00:51:06;2.00;99.90
20457;DHT22;10387;51.102;6.848;2023-01-25T00:53:32;2.00;99.90
20457;DHT22;10387;51.102;6.848;2023-01-25T00:55:58;2.00;99.90
20457;DHT22;10387;51.102;6.848;2023-01-25T00:58:24;1.90;99.90
20457;DHT22;10387;51.102;6.848;2023-01-25T01:00:52;2.00;99.90
20457;DHT22;10387;51.102;6.848;2023-01-25T01:03:18;1.90;99.90
20457;DHT22;10387;51.102;6.848;2023-01-25T01:05:44;1.90;99.90
20457;DHT22;10387;51.102;6.848;2023-01-25T01:08:11;1.80;99.90
20457;DHT22;10387;51.102;6.848;2023-01-25T01:10:37;1.90;99.90
20457;DHT22;10387;51.102;6.848;2023-01-25T01:13:03;2.00;99.90
20457;DHT22;10387;51.102;6.848;2023-01-25T01:15:29;2.00;99.90
20457;DHT22;10387;51.102;6.848;2023-01-25T01:17:55;2.00;99.90
20457;DHT22;10387;51.102;6.848;2023-01-25T01:20:20;1.90;99.90
20457;DHT22;10387;51.102;6.848;2023-01-25T01:22:46;1.90;99.90
20457;DHT22;10387;51.102;6.848;2023-01-25T01:25:12;1.90;99.90
20457;DHT22;10387;51.102;6.848;2023-01-25T01:27:39;1.90;99.90
20457;DHT22;10387;51.102;6.848;2023-01-25T01:30:05;1.80;99.90
20457;DHT22;10387;51.102;6.848;2023-01-25T01:32:31;1.80;99.90
20457;DHT22;10387;51.102;6.848;2023-01-25T01:34:57;1.70;99.90
20457;DHT22;10387;51.102;6.848;2023-01-25T01:37:22;1.70;99.90
20457;DHT22;10387;51.102;6.848;2023-01-25T01:39:48;1.70;99.90
20457;DHT22;10387;51.102;6.848;2023-01-25T01:42:13;1.60;99.90
20457;DHT22;10387;51.102;6.848;2023-01-25T01:44:51;1.60;99.90
20457;DHT22;10387;51.102;6.848;2023-01-25T01:47:30;1.60;99.90
20457;DHT22;10387;51.102;6.848;2023-01-25T01:50:20;1.70;99.90
20457;DHT22;10387;51.102;6.848;2023-01-25T01:52:49;1.80;99.90
20457;DHT22;10387;51.102;6.848;2023-01-25T01:55:17;1.90;99.90
20457;DHT22;10387;51.102;6.848;2023-01-25T01:57:49;1.90;99.90
20457;DHT22;10387;51.102;6.848;2023-01-25T02:00:19;1.90;99.90
20457;DHT22;10387;51.102;6.848;2023-01-25T02:02:48;1.80;99.90
20457;DHT22;10387;51.102;6.848;2023-01-25T02:08:13;1.80;99.90
20457;DHT22;10387;51.102;6.848;2023-01-25T02:10:40;1.80;99.90
20457;DHT22;10387;51.102;6.848;2023-01-25T02:13:06;1.80;99.90
20457;DHT22;10387;51.102;6.848;2023-01-25T02:15:37;1.90;99.90
20457;DHT22;10387;51.102;6.848;2023-01-25T02:18:05;1.90;99.90
20457;DHT22;10387;51.102;6.848;2023-01-25T02:20:41;1.90;99.90
20457;DHT22;10387;51.102;6.848;2023-01-25T02:25:48;1.80;99.90
20457;DHT22;10387;51.102;6.848;2023-01-25T02:28:23;1.80;99.90
20457;DHT22;10387;51.102;6.848;2023-01-25T02:30:50;1.90;99.90
20457;DHT22;10387;51.102;6.848;2023-01-25T02:33:16;2.00;99.90
20457;DHT22;10387;51.102;6.848;2023-01-25T02:38:13;2.00;99.90
20457;DHT22;10387;51.102;6.848;2023-01-25T02:41:29;1.90;99.90
20457;DHT22;10387;51.102;6.848;2023-01-25T02:43:33;1.80;99.90
20457;DHT22;10387;51.102;6.848;2023-01-25T02:46:32;1.80;99.90
20457;DHT22;10387;51.102;6.848;2023-01-25T02:48:59;1.80;99.90
20457;DHT22;10387;51.102;6.848;2023-01-25T02:51:29;1.80;99.90
20457;DHT22;10387;51.102;6.848;2023-01-25T02:53:56;1.80;99.90
20457;DHT22;10387;51.102;6.848;2023-01-25T02:56:21;1.80;99.90
20457;DHT22;10387;51.102;6.848;2023-01-25T02:58:48;1.80;99.90
20457;DHT22;10387;51.102;6.848;2023-01-25T03:01:15;1.80;99.90
20457;DHT22;10387;51.102;6.848;2023-01-25T03:03:41;1.80;99.90
20457;DHT22;10387;51.102;6.848;2023-01-25T03:06:07;1.80;99.90
20457;DHT22;10387;51.102;6.848;2023-01-25T03:08:34;1.80;99.90
20457;DHT22;10387;51.102;6.848;2023-01-25T03:11:01;1.80;99.90
20457;DHT22;10387;51.102;6.848;2023-01-25T03:13:30;1.80;99.90
20457;DHT22;10387;51.102;6.848;2023-01-25T03:16:05;1.80;99.90
20457;DHT22;10387;51.102;6.848;2023-01-25T03:18:32;1.90;99.90
20457;DHT22;10387;51.102;6.848;2023-01-25T03:21:31;1.90;99.90
20457;DHT22;10387;51.102;6.848;2023-01-25T03:23:59;2.00;99.90
20457;DHT22;10387;51.102;6.848;2023-01-25T03:26:29;2.10;99.90
20457;DHT22;10387;51.102;6.848;2023-01-25T03:29:05;2.00;99.90
20457;DHT22;10387;51.102;6.848;2023-01-25T03:31:33;2.00;99.90
20457;DHT22;10387;51.102;6.848;2023-01-25T03:33:59;2.10;99.90
20457;DHT22;10387;51.102;6.848;2023-01-25T03:36:30;2.00;99.90
20457;DHT22;10387;51.102;6.848;2023-01-25T03:38:56;1.90;99.90
20457;DHT22;10387;51.102;6.848;2023-01-25T03:41:21;1.90;99.90
20457;DHT22;10387;51.102;6.848;2023-01-25T03:43:47;1.80;99.90
20457;DHT22;10387;51.102;6.848;2023-01-25T03:46:16;1.70;99.90
20457;DHT22;10387;51.102;6.848;2023-01-25T03:48:41;1.80;99.90
20457;DHT22;10387;51.102;6.848;2023-01-25T03:51:08;1.70;99.90
20457;DHT22;10387;51.102;6.848;2023-01-25T03:53:35;1.70;99.90
20457;DHT22;10387;51.102;6.848;2023-01-25T03:56:10;1.70;99.90
20457;DHT22;10387;51.102;6.848;2023-01-25T03:58:38;1.70;99.90
20457;DHT22;10387;51.102;6.848;2023-01-25T04:01:06;1.70;99.90
20457;DHT22;10387;51.102;6.848;2023-01-25T04:03:33;1.70;99.90
20457;DHT22;10387;51.102;6.848;2023-01-25T04:06:00;1.60;99.90
20457;DHT22;10387;51.102;6.848;2023-01-25T04:08:27;1.60;99.90
20457;DHT22;10387;51.102;6.848;2023-01-25T04:11:00;1.60;99.90
20457;DHT22;10387;51.102;6.848;2023-01-25T04:13:26;1.60;99.90
20457;DHT22;10387;51.102;6.848;2023-01-25T04:15:52;1.60;99.90
20457;DHT22;10387;51.102;6.848;2023-01-25T04:18:38;1.60;99.90
20457;DHT22;10387;51.102;6.848;2023-01-25T04:21:05;1.60;99.90
20457;DHT22;10387;51.102;6.848;2023-01-25T04:23:31;1.60;99.90
20457;DHT22;10387;51.102;6.848;2023-01-25T04:25:59;1.50;99.90
20457;DHT22;10387;51.102;6.848;2023-01-25T04:28:26;1.50;99.90
20457;DHT22;10387;51.102;6.848;2023-01-25T04:30:54;1.50;99.90
20457;DHT22;10387;51.102;6.848;2023-01-25T04:33:21;1.60;99.90
20457;DHT22;10387;51.102;6.848;2023-01-25T04:35:47;1.60;99.90
20457;DHT22;10387;51.102;6.848;2023-01-25T04:38:15;1.60;99.90
20457;DHT22;10387;51.102;6.848;2023-01-25T04:40:43;1.60;99.90
20457;DHT22;10387;51.102;6.848;2023-01-25T04:43:12;1.60;99.90
20457;DHT22;10387;51.102;6.848;2023-01-25T04:45:38;1.50;99.90
20457;DHT22;10387;51.102;6.848;2023-01-25T04:48:11;1.50;99.90
20457;DHT22;10387;51.102;6.848;2023-01-25T04:50:44;1.50;99.90
20457;DHT22;10387;51.102;6.848;2023-01-25T04:53:12;1.50;99.90
20457;DHT22;10387;51.102;6.848;2023-01-25T04:55:38;1.50;99.90
20457;DHT22;10387;51.102;6.848;2023-01-25T04:58:06;1.50;99.90
20457;DHT22;10387;51.102;6.848;2023-01-25T05:00:32;1.50;99.90
20457;DHT22;10387;51.102;6.848;2023-01-25T05:03:00;1.50;99.90
20457;DHT22;10387;51.102;6.848;2023-01-25T05:05:25;1.60;99.90
20457;DHT22;10387;51.102;6.848;2023-01-25T05:07:52;1.70;99.90
20457;DHT22;10387;51.102;6.848;2023-01-25T05:10:18;1.70;99.90
20457;DHT22;10387;51.102;6.848;2023-01-25T05:13:16;1.70;99.90
20457;DHT22;10387;51.102;6.848;2023-01-25T05:15:43;1.60;99.90
20457;DHT22;10387;51.102;6.848;2023-01-25T05:18:09;1.60;99.90
20457;DHT22;10387;51.102;6.848;2023-01-25T05:20:35;1.50;99.90
20457;DHT22;10387;51.102;6.848;2023-01-25T05:23:01;1.50;99.90
20457;DHT22;10387;51.102;6.848;2023-01-25T05:25:28;1.60;99.90
20457;DHT22;10387;51.102;6.848;2023-01-25T05:28:13;1.70;99.90
20457;DHT22;10387;51.102;6.848;2023-01-25T05:31:05;1.90;99.90
20457;DHT22;10387;51.102;6.848;2023-01-25T05:33:33;1.90;99.90
20457;DHT22;10387;51.102;6.848;2023-01-25T05:35:59;2.00;99.90
20457;DHT22;10387;51.102;6.848;2023-01-25T05:38:30;2.00;99.90
20457;DHT22;10387;51.102;6.848;2023-01-25T05:40:57;2.00;99.90
20457;DHT22;10387;51.102;6.848;2023-01-25T05:43:23;1.90;99.90
20457;DHT22;10387;51.102;6.848;2023-01-25T05:45:52;1.80;99.90
20457;DHT22;10387;51.102;6.848;2023-01-25T05:48:18;1.70;99.90
20457;DHT22;10387;51.102;6.848;2023-01-25T05:50:45;1.60;99.90
20457;DHT22;10387;51.102;6.848;2023-01-25T05:53:15;1.60;99.90
20457;DHT22;10387;51.102;6.848;2023-01-25T05:55:41;1.60;99.90
20457;DHT22;10387;51.102;6.848;2023-01-25T05:58:11;1.60;99.90
20457;DHT22;10387;51.102;6.848;2023-01-25T06:00:38;1.50;99.90
20457;DHT22;10387;51.102;6.848;2023-01-25T06:03:04;1.50;99.90
20457;DHT22;10387;51.102;6.848;2023-01-25T06:05:32;1.50;99.90
20457;DHT22;10387;51.102;6.848;2023-01-25T06:07:58;1.50;99.90
20457;DHT22;10387;51.102;6.848;2023-01-25T06:10:31;1.40;99.90
20457;DHT22;10387;51.102;6.848;2023-01-25T06:13:00;1.40;99.90
20457;DHT22;10387;51.102;6.848;2023-01-25T06:15:26;1.30;99.90
20457;DHT22;10387;51.102;6.848;2023-01-25T06:17:55;1.30;99.90
20457;DHT22;10387;51.102;6.848;2023-01-25T06:20:27;1.40;99.90
20457;DHT22;10387;51.102;6.848;2023-01-25T06:23:05;1.40;99.90
20457;DHT22;10387;51.102;6.848;2023-01-25T06:25:31;1.30;99.90
20457;DHT22;10387;51.102;6.848;2023-01-25T06:27:56;1.40;99.90
20457;DHT22;10387;51.102;6.848;2023-01-25T06:30:22;1.30;99.90
20457;DHT22;10387;51.102;6.848;2023-01-25T06:32:47;1.40;99.90
20457;DHT22;10387;51.102;6.848;2023-01-25T06:35:14;1.40;99.90
20457;DHT22;10387;51.102;6.848;2023-01-25T06:37:41;1.40;99.90
20457;DHT22;10387;51.102;6.848;2023-01-25T06:40:07;1.40;99.90
20457;DHT22;10387;51.102;6.848;2023-01-25T06:42:32;1.40;99.90
20457;DHT22;10387;51.102;6.848;2023-01-25T06:45:01;1.40;99.90
20457;DHT22;10387;51.102;6.848;2023-01-25T06:47:57;1.40;99.90
20457;DHT22;10387;51.102;6.848;2023-01-25T06:50:50;1.40;99.90
20457;DHT22;10387;51.102;6.848;2023-01-25T06:53:30;1.40;99.90
20457;DHT22;10387;51.102;6.848;2023-01-25T06:56:18;1.40;99.90
20457;DHT22;10387;51.102;6.848;2023-01-25T06:58:47;1.40;99.90
20457;DHT22;10387;51.102;6.848;2023-01-25T07:01:14;1.40;99.90
20457;DHT22;10387;51.102;6.848;2023-01-25T07:03:40;1.40;99.90
20457;DHT22;10387;51.102;6.848;2023-01-25T07:06:08;1.40;99.90
20457;DHT22;10387;51.102;6.848;2023-01-25T07:08:35;1.40;99.90
20457;DHT22;10387;51.102;6.848;2023-01-25T07:11:03;1.50;99.90
20457;DHT22;10387;51.102;6.848;2023-01-25T07:13:30;1.50;99.90
20457;DHT22;10387;51.102;6.848;2023-01-25T07:16:02;1.50;99.90
20457;DHT22;10387;51.102;6.848;2023-01-25T07:18:29;1.40;99.90
20457;DHT22;10387;51.102;6.848;2023-01-25T07:21:08;1.40;99.90
20457;DHT22;10387;51.102;6.848;2023-01-25T07:23:34;1.50;99.90
20457;DHT22;10387;51.102;6.848;2023-01-25T07:26:02;1.40;99.90
20457;DHT22;10387;51.102;6.848;2023-01-25T07:28:28;1.50;99.90
20457;DHT22;10387;51.102;6.848;2023-01-25T07:30:55;1.50;99.90
20457;DHT22;10387;51.102;6.848;2023-01-25T07:33:21;1.50;99.90
20457;DHT22;10387;51.102;6.848;2023-01-25T07:35:47;1.50;99.90
20457;DHT22;10387;51.102;6.848;2023-01-25T07:38:15;1.50;99.90
20457;DHT22;10387;51.102;6.848;2023-01-25T07:40:42;1.50;99.90
20457;DHT22;10387;51.102;6.848;2023-01-25T07:43:07;1.50;99.90
20457;DHT22;10387;51.102;6.848;2023-01-25T07:45:35;1.60;99.90
20457;DHT22;10387;51.102;6.848;2023-01-25T07:48:07;1.60;99.90
20457;DHT22;10387;51.102;6.848;2023-01-25T07:50:34;1.70;99.90
20457;DHT22;10387;51.102;6.848;2023-01-25T07:53:00;1.70;99.90
20457;DHT22;10387;51.102;6.848;2023-01-25T07:55:25;1.70;99.90
20457;DHT22;10387;51.102;6.848;2023-01-25T07:57:53;1.70;99.90
20457;DHT22;10387;51.102;6.848;2023-01-25T08:00:20;1.70;99.90
20457;DHT22;10387;51.102;6.848;2023-01-25T08:02:49;1.70;99.90
20457;DHT22;10387;51.102;6.848;2023-01-25T08:05:15;1.60;99.90
20457;DHT22;10387;51.102;6.848;2023-01-25T08:07:40;1.60;99.90
20457;DHT22;10387;51.102;6.848;2023-01-25T08:10:07;1.60;99.90
20457;DHT22;10387;51.102;6.848;2023-01-25T08:12:33;1.60;99.90
20457;DHT22;10387;51.102;6.848;2023-01-25T08:14:59;1.60;99.90
20457;DHT22;10387;51.102;6.848;2023-01-25T08:17:25;1.50;99.90
20457;DHT22;10387;51.102;6.848;2023-01-25T08:19:59;1.40;99.90
20457;DHT22;10387;51.102;6.848;2023-01-25T08:22:26;1.50;99.90
20457;DHT22;10387;51.102;6.848;2023-01-25T08:24:53;1.50;99.90
20457;DHT22;10387;51.102;6.848;2023-01-25T08:27:19;1.50;99.90
20457;DHT22;10387;51.102;6.848;2023-01-25T08:29:45;1.50;99.90
20457;DHT22;10387;51.102;6.848;2023-01-25T08:32:11;1.50;99.90
20457;DHT22;10387;51.102;6.848;2023-01-25T08:34:37;1.40;99.90
20457;DHT22;10387;51.102;6.848;2023-01-25T08:37:05;1.40;99.90
20457;DHT22;10387;51.102;6.848;2023-01-25T08:39:30;1.40;99.90
20457;DHT22;10387;51.102;6.848;2023-01-25T08:41:56;1.40;99.90
20457;DHT22;10387;51.102;6.848;2023-01-25T08:44:22;1.40;99.90
20457;DHT22;10387;51.102;6.848;2023-01-25T08:46:50;1.40;99.90
20457;DHT22;10387;51.102;6.848;2023-01-25T08:49:15;1.40;99.90
20457;DHT22;10387;51.102;6.848;2023-01-25T08:51:41;1.40;99.90
20457;DHT22;10387;51.102;6.848;2023-01-25T08:54:10;1.40;99.90
20457;DHT22;10387;51.102;6.848;2023-01-25T08:56:37;1.40;99.90
20457;DHT22;10387;51.102;6.848;2023-01-25T08:59:03;1.50;99.90
20457;DHT22;10387;51.102;6.848;2023-01-25T09:01:30;1.40;99.90
20457;DHT22;10387;51.102;6.848;2023-01-25T09:03:56;1.40;99.90
20457;DHT22;10387;51.102;6.848;2023-01-25T09:06:21;1.50;99.90
20457;DHT22;10387;51.102;6.848;2023-01-25T09:08:47;1.50;99.90
20457;DHT22;10387;51.102;6.848;2023-01-25T09:11:16;1.50;99.90
20457;DHT22;10387;51.102;6.848;2023-01-25T09:13:42;1.60;99.90
20457;DHT22;10387;51.102;6.848;2023-01-25T09:16:10;1.50;99.90
20457;DHT22;10387;51.102;6.848;2023-01-25T09:18:40;1.50;99.90
20457;DHT22;10387;51.102;6.848;2023-01-25T09:21:26;1.50;99.90
20457;DHT22;10387;51.102;6.848;2023-01-25T09:23:52;1.50;99.90
20457;DHT22;10387;51.102;6.848;2023-01-25T09:26:18;1.50;99.90
20457;DHT22;10387;51.102;6.848;2023-01-25T09:28:49;1.40;99.90
20457;DHT22;10387;51.102;6.848;2023-01-25T09:31:16;1.40;99.90
20457;DHT22;10387;51.102;6.848;2023-01-25T09:34:01;1.50;99.90
20457;DHT22;10387;51.102;6.848;2023-01-25T09:36:26;1.50;99.90
20457;DHT22;10387;51.102;6.848;2023-01-25T09:38:54;1.60;99.90
20457;DHT22;10387;51.102;6.848;2023-01-25T09:44:28;1.70;99.90
20457;DHT22;10387;51.102;6.848;2023-01-25T09:46:58;1.80;99.90
20457;DHT22;10387;51.102;6.848;2023-01-25T09:55:01;1.90;99.90
20457;DHT22;10387;51.102;6.848;2023-01-25T09:57:32;1.90;99.90
20457;DHT22;10387;51.102;6.848;2023-01-25T10:00:05;1.80;99.90
20457;DHT22;10387;51.102;6.848;2023-01-25T10:05:16;1.90;99.90
20457;DHT22;10387;51.102;6.848;2023-01-25T10:08:07;1.90;99.90
20457;DHT22;10387;51.102;6.848;2023-01-25T10:10:39;2.00;99.90
20457;DHT22;10387;51.102;6.848;2023-01-25T10:13:11;2.10;99.90
20457;DHT22;10387;51.102;6.848;2023-01-25T10:15:51;2.10;99.90
20457;DHT22;10387;51.102;6.848;2023-01-25T10:18:38;2.30;99.90
20457;DHT22;10387;51.102;6.848;2023-01-25T10:21:30;2.20;99.90
20457;DHT22;10387;51.102;6.848;2023-01-25T10:30:27;2.00;99.90
20457;DHT22;10387;51.102;6.848;2023-01-25T10:32:59;2.00;99.90
20457;DHT22;10387;51.102;6.848;2023-01-25T10:35:29;2.00;99.90
20457;DHT22;10387;51.102;6.848;2023-01-25T10:37:58;1.90;99.90
20457;DHT22;10387;51.102;6.848;2023-01-25T10:40:32;2.00;99.90
20457;DHT22;10387;51.102;6.848;2023-01-25T10:43:04;1.90;99.90
20457;DHT22;10387;51.102;6.848;2023-01-25T10:45:31;1.90;99.90
20457;DHT22;10387;51.102;6.848;2023-01-25T10:48:01;1.80;99.90
20457;DHT22;10387;51.102;6.848;2023-01-25T10:50:41;1.90;99.90
20457;DHT22;10387;51.102;6.848;2023-01-25T10:58:36;1.90;99.90
20457;DHT22;10387;51.102;6.848;2023-01-25T11:01:08;1.80;99.90
20457;DHT22;10387;51.102;6.848;2023-01-25T11:03:38;1.80;99.90
20457;DHT22;10387;51.102;6.848;2023-01-25T11:06:06;1.80;99.90
20457;DHT22;10387;51.102;6.848;2023-01-25T11:08:37;1.80;99.90
20457;DHT22;10387;51.102;6.848;2023-01-25T11:13:40;1.70;99.90
20457;DHT22;10387;51.102;6.848;2023-01-25T11:18:52;1.70;99.90
20457;DHT22;10387;51.102;6.848;2023-01-25T11:21:20;1.60;99.90
20457;DHT22;10387;51.102;6.848;2023-01-25T11:26:32;1.70;99.90
20457;DHT22;10387;51.102;6.848;2023-01-25T11:29:09;1.60;99.90
20457;DHT22;10387;51.102;6.848;2023-01-25T11:31:35;1.70;99.90
20457;DHT22;10387;51.102;6.848;2023-01-25T11:34:01;1.70;99.90
20457;DHT22;10387;51.102;6.848;2023-01-25T11:37:04;1.60;99.90
20457;DHT22;10387;51.102;6.848;2023-01-25T11:42:34;1.60;99.90
20457;DHT22;10387;51.102;6.848;2023-01-25T11:57:03;1.60;99.90
20457;DHT22;10387;51.102;6.848;2023-01-25T12:08:32;1.60;99.90
20457;DHT22;10387;51.102;6.848;2023-01-25T12:14:11;1.60;99.90
20457;DHT22;10387;51.102;6.848;2023-01-25T12:22:45;1.60;99.90
20457;DHT22;10387;51.102;6.848;2023-01-25T12:30:56;1.50;99.90
20457;DHT22;10387;51.102;6.848;2023-01-25T12:33:32;1.50;99.90
20457;DHT22;10387;51.102;6.848;2023-01-25T12:36:19;1.50;99.90
20457;DHT22;10387;51.102;6.848;2023-01-25T12:39:09;1.50;99.90
20457;DHT22;10387;51.102;6.848;2023-01-25T12:41:50;1.60;99.90
20457;DHT22;10387;51.102;6.848;2023-01-25T12:47:20;1.70;99.90
20457;DHT22;10387;51.102;6.848;2023-01-25T12:52:41;1.80;99.90
20457;DHT22;10387;51.102;6.848;2023-01-25T12:55:15;1.70;99.90
20457;DHT22;10387;51.102;6.848;2023-01-25T12:58:27;1.70;99.90
20457;DHT22;10387;51.102;6.848;2023-01-25T13:01:18;1.70;99.90
20457;DHT22;10387;51.102;6.848;2023-01-25T13:06:51;1.80;99.90
20457;DHT22;10387;51.102;6.848;2023-01-25T13:09:39;1.80;99.90
20457;DHT22;10387;51.102;6.848;2023-01-25T13:12:10;1.80;99.90
20457;DHT22;10387;51.102;6.848;2023-01-25T13:14:38;1.80;99.90
20457;DHT22;10387;51.102;6.848;2023-01-25T13:17:31;1.80;99.90
20457;DHT22;10387;51.102;6.848;2023-01-25T13:19:58;1.80;99.90
20457;DHT22;10387;51.102;6.848;2023-01-25T13:27:42;1.90;99.90
20457;DHT22;10387;51.102;6.848;2023-01-25T13:35:27;1.90;99.90
20457;DHT22;10387;51.102;6.848;2023-01-25T13:40:35;1.90;99.90
20457;DHT22;10387;51.102;6.848;2023-01-25T13:43:05;1.90;99.90
20457;DHT22;10387;51.102;6.848;2023-01-25T13:45:41;1.90;99.90
20457;DHT22;10387;51.102;6.848;2023-01-25T13:50:35;1.80;99.90
20457;DHT22;10387;51.102;6.848;2023-01-25T13:53:22;1.80;99.90
20457;DHT22;10387;51.102;6.848;2023-01-25T13:55:49;1.80;99.90
20457;DHT22;10387;51.102;6.848;2023-01-25T13:58:24;1.80;99.90
20457;DHT22;10387;51.102;6.848;2023-01-25T14:01:12;1.80;99.90
20457;DHT22;10387;51.102;6.848;2023-01-25T14:03:43;1.90;99.90
20457;DHT22;10387;51.102;6.848;2023-01-25T14:06:21;1.80;99.90
20457;DHT22;10387;51.102;6.848;2023-01-25T14:08:49;1.90;99.90
20457;DHT22;10387;51.102;6.848;2023-01-25T14:11:25;1.90;99.90
20457;DHT22;10387;51.102;6.848;2023-01-25T14:14:02;1.90;99.90
20457;DHT22;10387;51.102;6.848;2023-01-25T14:16:30;1.80;99.90
20457;DHT22;10387;51.102;6.848;2023-01-25T14:19:25;1.80;99.90
20457;DHT22;10387;51.102;6.848;2023-01-25T14:22:30;1.80;99.90
20457;DHT22;10387;51.102;6.848;2023-01-25T14:25:16;1.80;99.90
20457;DHT22;10387;51.102;6.848;2023-01-25T14:30:21;1.70;99.90
20457;DHT22;10387;51.102;6.848;2023-01-25T14:32:53;1.70;99.90
20457;DHT22;10387;51.102;6.848;2023-01-25T14:38:18;1.60;99.90
20457;DHT22;10387;51.102;6.848;2023-01-25T14:40:45;1.60;99.90
20457;DHT22;10387;51.102;6.848;2023-01-25T14:43:12;1.60;99.90
20457;DHT22;10387;51.102;6.848;2023-01-25T14:45:38;1.60;99.90
20457;DHT22;10387;51.102;6.848;2023-01-25T14:48:03;1.50;99.90
20457;DHT22;10387;51.102;6.848;2023-01-25T14:50:34;1.50;99.90
20457;DHT22;10387;51.102;6.848;2023-01-25T14:53:19;1.50;99.90
20457;DHT22;10387;51.102;6.848;2023-01-25T14:55:47;1.50;99.90
20457;DHT22;10387;51.102;6.848;2023-01-25T14:58:17;1.50;99.90
20457;DHT22;10387;51.102;6.848;2023-01-25T15:00:51;1.50;99.90
20457;DHT22;10387;51.102;6.848;2023-01-25T15:03:17;1.50;99.90
20457;DHT22;10387;51.102;6.848;2023-01-25T15:05:46;1.60;99.90
20457;DHT22;10387;51.102;6.848;2023-01-25T15:08:14;1.50;99.90
20457;DHT22;10387;51.102;6.848;2023-01-25T15:10:57;1.60;99.90
20457;DHT22;10387;51.102;6.848;2023-01-25T15:13:44;1.60;99.90
20457;DHT22;10387;51.102;6.848;2023-01-25T15:16:09;1.50;99.90
20457;DHT22;10387;51.102;6.848;2023-01-25T15:21:16;1.40;99.90
20457;DHT22;10387;51.102;6.848;2023-01-25T15:23:43;1.40;99.90
20457;DHT22;10387;51.102;6.848;2023-01-25T15:26:27;1.30;99.90
20457;DHT22;10387;51.102;6.848;2023-01-25T15:29:01;1.30;99.90
20457;DHT22;10387;51.102;6.848;2023-01-25T15:31:32;1.30;99.90
20457;DHT22;10387;51.102;6.848;2023-01-25T15:33:58;1.30;99.90
20457;DHT22;10387;51.102;6.848;2023-01-25T15:36:26;1.30;99.90
20457;DHT22;10387;51.102;6.848;2023-01-25T15:38:52;1.30;99.90
20457;DHT22;10387;51.102;6.848;2023-01-25T15:41:18;1.30;99.90
20457;DHT22;10387;51.102;6.848;2023-01-25T15:43:45;1.30;99.90
20457;DHT22;10387;51.102;6.848;2023-01-25T15:46:15;1.30;99.90
20457;DHT22;10387;51.102;6.848;2023-01-25T15:48:44;1.30;99.90
20457;DHT22;10387;51.102;6.848;2023-01-25T15:51:11;1.30;99.90
20457;DHT22;10387;51.102;6.848;2023-01-25T15:53:37;1.20;99.90
20457;DHT22;10387;51.102;6.848;2023-01-25T15:56:09;1.30;99.90
20457;DHT22;10387;51.102;6.848;2023-01-25T15:59:05;1.20;99.90
20457;DHT22;10387;51.102;6.848;2023-01-25T16:01:52;1.20;99.90
20457;DHT22;10387;51.102;6.848;2023-01-25T16:04:34;1.20;99.90
20457;DHT22;10387;51.102;6.848;2023-01-25T16:07:34;1.10;99.90
20457;DHT22;10387;51.102;6.848;2023-01-25T16:10:33;1.10;99.90
20457;DHT22;10387;51.102;6.848;2023-01-25T16:14:03;1.10;99.90
20457;DHT22;10387;51.102;6.848;2023-01-25T16:16:51;1.10;99.90
20457;DHT22;10387;51.102;6.848;2023-01-25T16:19:47;1.10;99.90
20457;DHT22;10387;51.102;6.848;2023-01-25T16:22:34;1.10;99.90
20457;DHT22;10387;51.102;6.848;2023-01-25T16:25:18;1.00;99.90
20457;DHT22;10387;51.102;6.848;2023-01-25T16:27:48;1.00;99.90
20457;DHT22;10387;51.102;6.848;2023-01-25T16:30:23;1.00;99.90
20457;DHT22;10387;51.102;6.848;2023-01-25T16:32:51;1.00;99.90
20457;DHT22;10387;51.102;6.848;2023-01-25T16:35:17;1.00;99.90
20457;DHT22;10387;51.102;6.848;2023-01-25T16:37:43;0.90;99.90
20457;DHT22;10387;51.102;6.848;2023-01-25T16:40:32;0.90;99.90
20457;DHT22;10387;51.102;6.848;2023-01-25T16:43:01;0.80;99.90
20457;DHT22;10387;51.102;6.848;2023-01-25T16:45:27;0.80;99.90
20457;DHT22;10387;51.102;6.848;2023-01-25T16:47:53;0.80;99.90
20457;DHT22;10387;51.102;6.848;2023-01-25T16:50:20;0.80;99.90
20457;DHT22;10387;51.102;6.848;2023-01-25T16:52:46;0.70;99.90
20457;DHT22;10387;51.102;6.848;2023-01-25T16:55:15;0.70;99.90
20457;DHT22;10387;51.102;6.848;2023-01-25T16:57:42;0.70;99.90
20457;DHT22;10387;51.102;6.848;2023-01-25T17:00:10;0.70;99.90
20457;DHT22;10387;51.102;6.848;2023-01-25T17:02:37;0.70;99.90
20457;DHT22;10387;51.102;6.848;2023-01-25T17:05:04;0.70;99.90
20457;DHT22;10387;51.102;6.848;2023-01-25T17:07:31;0.70;99.90
20457;DHT22;10387;51.102;6.848;2023-01-25T17:09:56;0.70;99.90
20457;DHT22;10387;51.102;6.848;2023-01-25T17:12:22;0.70;99.90
20457;DHT22;10387;51.102;6.848;2023-01-25T17:14:48;0.60;99.90
20457;DHT22;10387;51.102;6.848;2023-01-25T17:17:13;0.60;99.90
20457;DHT22;10387;51.102;6.848;2023-01-25T17:19:39;0.60;99.90
20457;DHT22;10387;51.102;6.848;2023-01-25T17:22:05;0.50;99.90
20457;DHT22;10387;51.102;6.848;2023-01-25T17:24:30;0.50;99.90
20457;DHT22;10387;51.102;6.848;2023-01-25T17:26:57;0.50;99.90
20457;DHT22;10387;51.102;6.848;2023-01-25T17:29:23;0.60;99.90
20457;DHT22;10387;51.102;6.848;2023-01-25T17:31:50;0.50;99.90
20457;DHT22;10387;51.102;6.848;2023-01-25T17:34:17;0.50;99.90
20457;DHT22;10387;51.102;6.848;2023-01-25T17:36:44;0.50;99.90
20457;DHT22;10387;51.102;6.848;2023-01-25T17:39:11;0.50;99.90
20457;DHT22;10387;51.102;6.848;2023-01-25T17:41:40;0.50;99.90
20457;DHT22;10387;51.102;6.848;2023-01-25T17:44:05;0.40;99.90
20457;DHT22;10387;51.102;6.848;2023-01-25T17:46:31;0.50;99.90
20457;DHT22;10387;51.102;6.848;2023-01-25T17:48:59;0.40;99.90
20457;DHT22;10387;51.102;6.848;2023-01-25T17:51:26;0.40;99.90
20457;DHT22;10387;51.102;6.848;2023-01-25T17:53:52;0.30;99.90
20457;DHT22;10387;51.102;6.848;2023-01-25T17:56:18;0.30;99.90
20457;DHT22;10387;51.102;6.848;2023-01-25T17:58:44;0.30;99.90
20457;DHT22;10387;51.102;6.848;2023-01-25T18:01:17;0.30;99.90